sensor_id;sensor_type;location;lat;lon;timestamp;P1;durP1;ratioP1;P2;durP2;ratioP2
19231;SDS011;9750;48.730;10.294;2022-11-04T00:00:30;5.77;;;3.20;;
19231;SDS011;9750;48.730;10.294;2022-11-04T00:02:58;3.40;;;3.10;;
19231;SDS011;9750;48.730;10.294;2022-11-04T00:05:25;3.40;;;3.10;;
19231;SDS011;9750;48.730;10.294;2022-11-04T00:07:54;3.27;;;2.90;;
19231;SDS011;9750;48.730;10.294;2022-11-04T00:14:00;4.80;;;2.63;;
19231;SDS011;9750;48.730;10.294;2022-11-04T00:16:28;2.40;;;2.20;;
19231;SDS011;9750;48.730;10.294;2022-11-04T00:19:13;3.37;;;2.40;;
19231;SDS011;9750;48.730;10.294;2022-11-04T00:21:40;2.40;;;2.20;;
19231;SDS011;9750;48.730;10.294;2022-11-04T00:24:27;3.30;;;2.10;;
19231;SDS011;9750;48.730;10.294;2022-11-04T00:27:12;3.20;;;1.97;;
19231;SDS011;9750;48.730;10.294;2022-11-04T00:29:57;2.77;;;2.40;;
19231;SDS011;9750;48.730;10.294;2022-11-04T00:32:25;2.20;;;2.00;;
19231;SDS011;9750;48.730;10.294;2022-11-04T00:35:10;2.20;;;2.00;;
19231;SDS011;9750;48.730;10.294;2022-11-04T00:37:38;6.20;;;2.10;;
19231;SDS011;9750;48.730;10.294;2022-11-04T00:40:09;2.83;;;2.00;;
19231;SDS011;9750;48.730;10.294;2022-11-04T00:42:38;2.37;;;2.17;;
19231;SDS011;9750;48.730;10.294;2022-11-04T00:45:05;2.97;;;2.00;;
19231;SDS011;9750;48.730;10.294;2022-11-04T00:47:33;2.40;;;2.20;;
19231;SDS011;9750;48.730;10.294;2022-11-04T00:50:01;2.40;;;2.20;;
19231;SDS011;9750;48.730;10.294;2022-11-04T00:52:28;2.03;;;1.83;;
19231;SDS011;9750;48.730;10.294;2022-11-04T00:54:56;2.07;;;1.87;;
19231;SDS011;9750;48.730;10.294;2022-11-04T00:57:24;2.90;;;2.00;;
19231;SDS011;9750;48.730;10.294;2022-11-04T00:59:52;2.17;;;1.93;;
19231;SDS011;9750;48.730;10.294;2022-11-04T01:02:19;2.03;;;1.83;;
19231;SDS011;9750;48.730;10.294;2022-11-04T01:04:47;2.57;;;2.00;;
19231;SDS011;9750;48.730;10.294;2022-11-04T01:07:14;2.30;;;2.07;;
19231;SDS011;9750;48.730;10.294;2022-11-04T01:09:42;2.37;;;2.10;;
19231;SDS011;9750;48.730;10.294;2022-11-04T01:12:09;2.40;;;2.20;;
19231;SDS011;9750;48.730;10.294;2022-11-04T01:14:38;3.33;;;2.50;;
19231;SDS011;9750;48.730;10.294;2022-11-04T01:17:05;3.80;;;2.30;;
19231;SDS011;9750;48.730;10.294;2022-11-04T01:19:32;2.50;;;2.30;;
19231;SDS011;9750;48.730;10.294;2022-11-04T01:22:00;5.03;;;2.60;;
19231;SDS011;9750;48.730;10.294;2022-11-04T01:24:27;3.07;;;2.67;;
19231;SDS011;9750;48.730;10.294;2022-11-04T01:26:55;2.67;;;2.30;;
19231;SDS011;9750;48.730;10.294;2022-11-04T01:29:22;3.23;;;2.77;;
19231;SDS011;9750;48.730;10.294;2022-11-04T01:31:51;3.33;;;2.80;;
19231;SDS011;9750;48.730;10.294;2022-11-04T01:34:18;2.33;;;2.13;;
19231;SDS011;9750;48.730;10.294;2022-11-04T01:36:46;3.30;;;2.67;;
19231;SDS011;9750;48.730;10.294;2022-11-04T01:39:13;2.93;;;2.63;;
19231;SDS011;9750;48.730;10.294;2022-11-04T01:41:40;3.30;;;2.37;;
19231;SDS011;9750;48.730;10.294;2022-11-04T01:47:15;3.57;;;2.23;;
19231;SDS011;9750;48.730;10.294;2022-11-04T01:49:45;2.30;;;2.10;;
19231;SDS011;9750;48.730;10.294;2022-11-04T01:52:17;2.87;;;2.57;;
19231;SDS011;9750;48.730;10.294;2022-11-04T01:54:47;2.80;;;2.00;;
19231;SDS011;9750;48.730;10.294;2022-11-04T01:57:18;3.07;;;2.37;;
19231;SDS011;9750;48.730;10.294;2022-11-04T01:59:50;2.70;;;2.13;;
19231;SDS011;9750;48.730;10.294;2022-11-04T02:02:20;3.00;;;2.10;;
19231;SDS011;9750;48.730;10.294;2022-11-04T02:04:47;5.00;;;2.30;;
19231;SDS011;9750;48.730;10.294;2022-11-04T02:07:14;3.33;;;2.27;;
19231;SDS011;9750;48.730;10.294;2022-11-04T02:09:42;2.37;;;2.17;;
19231;SDS011;9750;48.730;10.294;2022-11-04T02:12:10;2.47;;;2.07;;
19231;SDS011;9750;48.730;10.294;2022-11-04T02:14:54;3.07;;;2.30;;
19231;SDS011;9750;48.730;10.294;2022-11-04T02:17:37;2.17;;;1.97;;
19231;SDS011;9750;48.730;10.294;2022-11-04T02:20:15;2.40;;;2.20;;
19231;SDS011;9750;48.730;10.294;2022-11-04T02:32:18;1.97;;;1.70;;
19231;SDS011;9750;48.730;10.294;2022-11-04T02:34:54;2.93;;;2.00;;
19231;SDS011;9750;48.730;10.294;2022-11-04T02:37:31;2.73;;;2.20;;
19231;SDS011;9750;48.730;10.294;2022-11-04T02:40:15;2.00;;;1.80;;
19231;SDS011;9750;48.730;10.294;2022-11-04T02:42:51;2.00;;;1.80;;
19231;SDS011;9750;48.730;10.294;2022-11-04T02:45:25;2.27;;;2.07;;
19231;SDS011;9750;48.730;10.294;2022-11-04T02:48:00;3.00;;;1.70;;
19231;SDS011;9750;48.730;10.294;2022-11-04T02:50:33;3.07;;;2.20;;
19231;SDS011;9750;48.730;10.294;2022-11-04T02:53:08;2.40;;;1.67;;
19231;SDS011;9750;48.730;10.294;2022-11-04T02:55:41;2.17;;;1.97;;
19231;SDS011;9750;48.730;10.294;2022-11-04T02:58:12;2.10;;;1.90;;
19231;SDS011;9750;48.730;10.294;2022-11-04T03:00:43;2.27;;;1.90;;
19231;SDS011;9750;48.730;10.294;2022-11-04T03:03:12;1.70;;;1.60;;
19231;SDS011;9750;48.730;10.294;2022-11-04T03:05:44;2.03;;;1.83;;
19231;SDS011;9750;48.730;10.294;2022-11-04T03:08:16;1.70;;;1.50;;
19231;SDS011;9750;48.730;10.294;2022-11-04T03:10:49;2.10;;;1.80;;
19231;SDS011;9750;48.730;10.294;2022-11-04T03:13:19;2.67;;;2.10;;
19231;SDS011;9750;48.730;10.294;2022-11-04T03:15:52;2.37;;;1.70;;
19231;SDS011;9750;48.730;10.294;2022-11-04T03:18:23;2.50;;;2.00;;
19231;SDS011;9750;48.730;10.294;2022-11-04T03:21:00;2.57;;;1.80;;
19231;SDS011;9750;48.730;10.294;2022-11-04T03:23:29;1.70;;;1.60;;
19231;SDS011;9750;48.730;10.294;2022-11-04T03:26:01;2.30;;;2.00;;
19231;SDS011;9750;48.730;10.294;2022-11-04T03:28:39;1.90;;;1.70;;
19231;SDS011;9750;48.730;10.294;2022-11-04T03:31:16;2.23;;;2.03;;
19231;SDS011;9750;48.730;10.294;2022-11-04T03:33:49;2.17;;;1.97;;
19231;SDS011;9750;48.730;10.294;2022-11-04T03:36:18;2.10;;;1.77;;
19231;SDS011;9750;48.730;10.294;2022-11-04T03:42:09;2.00;;;1.80;;
19231;SDS011;9750;48.730;10.294;2022-11-04T03:44:46;3.17;;;2.10;;
19231;SDS011;9750;48.730;10.294;2022-11-04T03:47:16;2.10;;;1.80;;
19231;SDS011;9750;48.730;10.294;2022-11-04T03:49:45;3.23;;;1.70;;
19231;SDS011;9750;48.730;10.294;2022-11-04T03:52:13;2.07;;;1.70;;
19231;SDS011;9750;48.730;10.294;2022-11-04T03:54:43;1.87;;;1.70;;
19231;SDS011;9750;48.730;10.294;2022-11-04T03:57:24;2.90;;;1.80;;
19231;SDS011;9750;48.730;10.294;2022-11-04T04:00:03;4.17;;;1.87;;
19231;SDS011;9750;48.730;10.294;2022-11-04T04:02:47;1.70;;;1.40;;
19231;SDS011;9750;48.730;10.294;2022-11-04T04:05:24;1.60;;;1.50;;
19231;SDS011;9750;48.730;10.294;2022-11-04T04:07:55;1.70;;;1.60;;
19231;SDS011;9750;48.730;10.294;2022-11-04T04:10:34;3.97;;;1.80;;
19231;SDS011;9750;48.730;10.294;2022-11-04T04:13:20;2.30;;;1.63;;
19231;SDS011;9750;48.730;10.294;2022-11-04T04:15:54;2.07;;;1.50;;
19231;SDS011;9750;48.730;10.294;2022-11-04T04:18:29;2.03;;;1.70;;
19231;SDS011;9750;48.730;10.294;2022-11-04T04:21:01;1.87;;;1.40;;
19231;SDS011;9750;48.730;10.294;2022-11-04T04:23:32;2.00;;;1.40;;
19231;SDS011;9750;48.730;10.294;2022-11-04T04:26:18;3.10;;;1.63;;
19231;SDS011;9750;48.730;10.294;2022-11-04T04:29:04;1.53;;;1.43;;
19231;SDS011;9750;48.730;10.294;2022-11-04T04:31:35;2.40;;;1.60;;
19231;SDS011;9750;48.730;10.294;2022-11-04T04:34:19;2.63;;;1.60;;
19231;SDS011;9750;48.730;10.294;2022-11-04T04:36:51;3.13;;;1.77;;
19231;SDS011;9750;48.730;10.294;2022-11-04T04:39:22;3.00;;;1.73;;
19231;SDS011;9750;48.730;10.294;2022-11-04T04:42:10;1.53;;;1.40;;
19231;SDS011;9750;48.730;10.294;2022-11-04T04:44:54;3.30;;;1.53;;
19231;SDS011;9750;48.730;10.294;2022-11-04T04:47:32;1.33;;;1.23;;
19231;SDS011;9750;48.730;10.294;2022-11-04T04:50:06;2.50;;;1.63;;
19231;SDS011;9750;48.730;10.294;2022-11-04T04:52:36;3.50;;;1.40;;
19231;SDS011;9750;48.730;10.294;2022-11-04T04:55:05;1.63;;;1.30;;
19231;SDS011;9750;48.730;10.294;2022-11-04T04:57:33;3.87;;;1.77;;
19231;SDS011;9750;48.730;10.294;2022-11-04T05:00:00;4.63;;;1.97;;
19231;SDS011;9750;48.730;10.294;2022-11-04T05:02:27;2.30;;;1.40;;
19231;SDS011;9750;48.730;10.294;2022-11-04T05:04:55;2.77;;;1.60;;
19231;SDS011;9750;48.730;10.294;2022-11-04T05:07:24;3.57;;;1.80;;
19231;SDS011;9750;48.730;10.294;2022-11-04T05:09:52;3.33;;;1.80;;
19231;SDS011;9750;48.730;10.294;2022-11-04T05:12:19;3.30;;;1.63;;
19231;SDS011;9750;48.730;10.294;2022-11-04T05:14:47;2.20;;;1.70;;
19231;SDS011;9750;48.730;10.294;2022-11-04T05:17:14;2.77;;;1.73;;
19231;SDS011;9750;48.730;10.294;2022-11-04T05:19:42;2.33;;;1.63;;
19231;SDS011;9750;48.730;10.294;2022-11-04T05:22:09;3.07;;;1.60;;
19231;SDS011;9750;48.730;10.294;2022-11-04T05:24:38;3.60;;;2.00;;
19231;SDS011;9750;48.730;10.294;2022-11-04T05:27:05;3.07;;;1.53;;
19231;SDS011;9750;48.730;10.294;2022-11-04T05:29:32;2.27;;;1.50;;
19231;SDS011;9750;48.730;10.294;2022-11-04T05:31:59;3.43;;;1.80;;
19231;SDS011;9750;48.730;10.294;2022-11-04T05:34:27;3.70;;;1.80;;
19231;SDS011;9750;48.730;10.294;2022-11-04T05:36:54;4.40;;;1.93;;
19231;SDS011;9750;48.730;10.294;2022-11-04T05:39:21;3.50;;;1.50;;
19231;SDS011;9750;48.730;10.294;2022-11-04T05:41:50;2.73;;;1.83;;
19231;SDS011;9750;48.730;10.294;2022-11-04T05:44:17;3.00;;;1.40;;
19231;SDS011;9750;48.730;10.294;2022-11-04T05:46:45;3.57;;;1.80;;
19231;SDS011;9750;48.730;10.294;2022-11-04T05:49:12;2.87;;;1.60;;
19231;SDS011;9750;48.730;10.294;2022-11-04T05:51:40;4.23;;;1.50;;
19231;SDS011;9750;48.730;10.294;2022-11-04T05:54:07;2.83;;;1.63;;
19231;SDS011;9750;48.730;10.294;2022-11-04T05:56:35;2.40;;;1.70;;
19231;SDS011;9750;48.730;10.294;2022-11-04T05:59:03;3.20;;;1.50;;
19231;SDS011;9750;48.730;10.294;2022-11-04T06:01:32;3.33;;;1.57;;
19231;SDS011;9750;48.730;10.294;2022-11-04T06:04:00;3.10;;;1.60;;
19231;SDS011;9750;48.730;10.294;2022-11-04T06:06:30;2.70;;;1.83;;
19231;SDS011;9750;48.730;10.294;2022-11-04T06:08:58;2.90;;;1.60;;
19231;SDS011;9750;48.730;10.294;2022-11-04T06:11:26;2.43;;;1.63;;
19231;SDS011;9750;48.730;10.294;2022-11-04T06:13:55;4.80;;;1.80;;
19231;SDS011;9750;48.730;10.294;2022-11-04T06:16:24;4.23;;;1.80;;
19231;SDS011;9750;48.730;10.294;2022-11-04T06:18:52;3.43;;;1.80;;
19231;SDS011;9750;48.730;10.294;2022-11-04T06:21:21;2.03;;;1.70;;
19231;SDS011;9750;48.730;10.294;2022-11-04T06:23:51;5.97;;;1.80;;
19231;SDS011;9750;48.730;10.294;2022-11-04T06:26:21;2.73;;;1.50;;
19231;SDS011;9750;48.730;10.294;2022-11-04T06:28:48;4.13;;;1.80;;
19231;SDS011;9750;48.730;10.294;2022-11-04T06:31:16;2.50;;;1.70;;
19231;SDS011;9750;48.730;10.294;2022-11-04T06:33:45;5.53;;;1.90;;
19231;SDS011;9750;48.730;10.294;2022-11-04T06:36:13;3.73;;;1.70;;
19231;SDS011;9750;48.730;10.294;2022-11-04T06:38:41;4.47;;;1.70;;
19231;SDS011;9750;48.730;10.294;2022-11-04T06:41:11;4.23;;;1.60;;
19231;SDS011;9750;48.730;10.294;2022-11-04T06:43:39;2.60;;;1.67;;
19231;SDS011;9750;48.730;10.294;2022-11-04T06:46:20;2.33;;;1.70;;
19231;SDS011;9750;48.730;10.294;2022-11-04T06:48:52;3.80;;;1.80;;
19231;SDS011;9750;48.730;10.294;2022-11-04T06:51:21;2.30;;;1.47;;
19231;SDS011;9750;48.730;10.294;2022-11-04T06:53:49;2.27;;;1.60;;
19231;SDS011;9750;48.730;10.294;2022-11-04T06:56:16;3.13;;;1.77;;
19231;SDS011;9750;48.730;10.294;2022-11-04T06:58:46;2.60;;;1.63;;
19231;SDS011;9750;48.730;10.294;2022-11-04T07:01:14;1.93;;;1.60;;
19231;SDS011;9750;48.730;10.294;2022-11-04T07:03:41;2.73;;;1.80;;
19231;SDS011;9750;48.730;10.294;2022-11-04T07:06:10;3.80;;;1.70;;
19231;SDS011;9750;48.730;10.294;2022-11-04T07:08:38;3.77;;;1.47;;
19231;SDS011;9750;48.730;10.294;2022-11-04T07:11:06;3.60;;;1.60;;
19231;SDS011;9750;48.730;10.294;2022-11-04T07:13:33;3.10;;;1.80;;
19231;SDS011;9750;48.730;10.294;2022-11-04T07:16:03;2.33;;;1.40;;
19231;SDS011;9750;48.730;10.294;2022-11-04T07:18:30;5.03;;;1.90;;
19231;SDS011;9750;48.730;10.294;2022-11-04T07:20:58;3.07;;;1.60;;
19231;SDS011;9750;48.730;10.294;2022-11-04T07:23:27;2.30;;;1.87;;
19231;SDS011;9750;48.730;10.294;2022-11-04T07:25:58;2.93;;;1.50;;
19231;SDS011;9750;48.730;10.294;2022-11-04T07:28:26;3.80;;;1.70;;
19231;SDS011;9750;48.730;10.294;2022-11-04T07:30:54;2.67;;;1.73;;
19231;SDS011;9750;48.730;10.294;2022-11-04T07:33:22;3.27;;;1.50;;
19231;SDS011;9750;48.730;10.294;2022-11-04T07:35:50;2.37;;;1.60;;
19231;SDS011;9750;48.730;10.294;2022-11-04T07:38:18;4.23;;;1.90;;
19231;SDS011;9750;48.730;10.294;2022-11-04T07:40:47;3.17;;;1.80;;
19231;SDS011;9750;48.730;10.294;2022-11-04T07:43:15;3.70;;;2.03;;
19231;SDS011;9750;48.730;10.294;2022-11-04T07:45:42;3.50;;;2.00;;
19231;SDS011;9750;48.730;10.294;2022-11-04T07:48:10;2.93;;;1.73;;
19231;SDS011;9750;48.730;10.294;2022-11-04T07:53:59;4.07;;;2.37;;
19231;SDS011;9750;48.730;10.294;2022-11-04T07:56:28;2.83;;;2.17;;
19231;SDS011;9750;48.730;10.294;2022-11-04T07:58:55;2.17;;;1.93;;
19231;SDS011;9750;48.730;10.294;2022-11-04T08:01:23;3.57;;;2.50;;
19231;SDS011;9750;48.730;10.294;2022-11-04T08:03:51;4.37;;;2.30;;
19231;SDS011;9750;48.730;10.294;2022-11-04T08:06:19;4.33;;;2.40;;
19231;SDS011;9750;48.730;10.294;2022-11-04T08:08:47;2.50;;;2.30;;
19231;SDS011;9750;48.730;10.294;2022-11-04T08:11:14;5.83;;;2.57;;
19231;SDS011;9750;48.730;10.294;2022-11-04T08:13:45;3.20;;;2.27;;
19231;SDS011;9750;48.730;10.294;2022-11-04T08:16:14;5.63;;;2.70;;
19231;SDS011;9750;48.730;10.294;2022-11-04T08:18:42;4.13;;;2.73;;
19231;SDS011;9750;48.730;10.294;2022-11-04T08:21:10;5.00;;;3.20;;
19231;SDS011;9750;48.730;10.294;2022-11-04T08:23:38;3.87;;;3.30;;
19231;SDS011;9750;48.730;10.294;2022-11-04T08:26:06;3.10;;;2.43;;
19231;SDS011;9750;48.730;10.294;2022-11-04T08:28:34;3.77;;;1.90;;
19231;SDS011;9750;48.730;10.294;2022-11-04T08:31:03;2.70;;;1.77;;
19231;SDS011;9750;48.730;10.294;2022-11-04T08:33:32;2.30;;;1.70;;
19231;SDS011;9750;48.730;10.294;2022-11-04T08:36:01;4.07;;;1.73;;
19231;SDS011;9750;48.730;10.294;2022-11-04T08:38:31;3.63;;;1.80;;
19231;SDS011;9750;48.730;10.294;2022-11-04T08:40:59;3.93;;;1.90;;
19231;SDS011;9750;48.730;10.294;2022-11-04T08:43:29;1.87;;;1.60;;
19231;SDS011;9750;48.730;10.294;2022-11-04T08:45:58;3.53;;;1.70;;
19231;SDS011;9750;48.730;10.294;2022-11-04T08:48:27;3.50;;;2.10;;
19231;SDS011;9750;48.730;10.294;2022-11-04T08:50:55;2.07;;;1.80;;
19231;SDS011;9750;48.730;10.294;2022-11-04T08:53:24;4.33;;;1.93;;
19231;SDS011;9750;48.730;10.294;2022-11-04T08:55:52;2.90;;;1.77;;
19231;SDS011;9750;48.730;10.294;2022-11-04T08:58:19;3.53;;;2.20;;
19231;SDS011;9750;48.730;10.294;2022-11-04T09:00:48;6.67;;;3.60;;
19231;SDS011;9750;48.730;10.294;2022-11-04T09:03:15;5.93;;;3.50;;
19231;SDS011;9750;48.730;10.294;2022-11-04T09:05:44;5.43;;;3.37;;
19231;SDS011;9750;48.730;10.294;2022-11-04T09:08:13;4.73;;;2.87;;
19231;SDS011;9750;48.730;10.294;2022-11-04T09:10:44;4.23;;;2.53;;
19231;SDS011;9750;48.730;10.294;2022-11-04T09:13:13;3.47;;;1.90;;
19231;SDS011;9750;48.730;10.294;2022-11-04T09:15:41;6.67;;;2.10;;
19231;SDS011;9750;48.730;10.294;2022-11-04T09:18:09;3.47;;;2.13;;
19231;SDS011;9750;48.730;10.294;2022-11-04T09:24:00;4.93;;;2.13;;
19231;SDS011;9750;48.730;10.294;2022-11-04T09:26:27;3.07;;;2.10;;
19231;SDS011;9750;48.730;10.294;2022-11-04T09:28:55;4.77;;;2.30;;
19231;SDS011;9750;48.730;10.294;2022-11-04T09:31:24;3.07;;;2.10;;
19231;SDS011;9750;48.730;10.294;2022-11-04T09:33:52;5.70;;;2.93;;
19231;SDS011;9750;48.730;10.294;2022-11-04T09:36:20;6.67;;;3.47;;
19231;SDS011;9750;48.730;10.294;2022-11-04T09:39:06;8.13;;;3.83;;
19231;SDS011;9750;48.730;10.294;2022-11-04T09:44:38;9.13;;;4.97;;
19231;SDS011;9750;48.730;10.294;2022-11-04T09:47:12;8.50;;;5.10;;
19231;SDS011;9750;48.730;10.294;2022-11-04T09:53:02;10.23;;;6.50;;
19231;SDS011;9750;48.730;10.294;2022-11-04T09:55:40;11.77;;;8.33;;
19231;SDS011;9750;48.730;10.294;2022-11-04T09:58:13;9.13;;;6.13;;
19231;SDS011;9750;48.730;10.294;2022-11-04T10:00:41;13.30;;;10.70;;
19231;SDS011;9750;48.730;10.294;2022-11-04T10:03:17;9.07;;;7.13;;
19231;SDS011;9750;48.730;10.294;2022-11-04T10:05:54;11.97;;;6.93;;
19231;SDS011;9750;48.730;10.294;2022-11-04T10:08:37;9.40;;;6.60;;
19231;SDS011;9750;48.730;10.294;2022-11-04T10:11:15;11.80;;;7.90;;
19231;SDS011;9750;48.730;10.294;2022-11-04T10:13:54;10.33;;;6.43;;
19231;SDS011;9750;48.730;10.294;2022-11-04T10:16:45;7.57;;;5.17;;
19231;SDS011;9750;48.730;10.294;2022-11-04T10:19:26;7.20;;;4.73;;
19231;SDS011;9750;48.730;10.294;2022-11-04T10:22:06;7.00;;;5.07;;
19231;SDS011;9750;48.730;10.294;2022-11-04T10:24:41;8.03;;;4.57;;
19231;SDS011;9750;48.730;10.294;2022-11-04T10:27:16;8.50;;;5.03;;
19231;SDS011;9750;48.730;10.294;2022-11-04T10:29:49;7.57;;;4.70;;
19231;SDS011;9750;48.730;10.294;2022-11-04T10:32:20;7.93;;;4.67;;
19231;SDS011;9750;48.730;10.294;2022-11-04T10:34:52;7.87;;;5.03;;
19231;SDS011;9750;48.730;10.294;2022-11-04T10:37:23;8.30;;;4.83;;
19231;SDS011;9750;48.730;10.294;2022-11-04T10:39:52;8.97;;;4.20;;
19231;SDS011;9750;48.730;10.294;2022-11-04T10:42:26;7.17;;;4.47;;
19231;SDS011;9750;48.730;10.294;2022-11-04T10:44:53;7.53;;;4.10;;
19231;SDS011;9750;48.730;10.294;2022-11-04T10:47:24;4.97;;;3.83;;
19231;SDS011;9750;48.730;10.294;2022-11-04T10:50:02;7.30;;;3.97;;
19231;SDS011;9750;48.730;10.294;2022-11-04T10:52:46;9.23;;;4.63;;
19231;SDS011;9750;48.730;10.294;2022-11-04T10:55:19;8.73;;;5.00;;
19231;SDS011;9750;48.730;10.294;2022-11-04T10:57:56;7.40;;;4.10;;
19231;SDS011;9750;48.730;10.294;2022-11-04T11:00:31;7.67;;;3.90;;
19231;SDS011;9750;48.730;10.294;2022-11-04T11:03:00;8.30;;;4.13;;
19231;SDS011;9750;48.730;10.294;2022-11-04T11:05:27;8.23;;;3.87;;
19231;SDS011;9750;48.730;10.294;2022-11-04T11:07:55;4.53;;;3.43;;
19231;SDS011;9750;48.730;10.294;2022-11-04T11:10:23;5.90;;;3.67;;
19231;SDS011;9750;48.730;10.294;2022-11-04T11:12:53;6.30;;;3.20;;
19231;SDS011;9750;48.730;10.294;2022-11-04T11:15:30;4.77;;;3.30;;
19231;SDS011;9750;48.730;10.294;2022-11-04T11:18:05;6.33;;;3.20;;
19231;SDS011;9750;48.730;10.294;2022-11-04T11:20:41;4.57;;;3.20;;
19231;SDS011;9750;48.730;10.294;2022-11-04T11:23:32;4.63;;;2.90;;
19231;SDS011;9750;48.730;10.294;2022-11-04T11:26:02;3.67;;;2.23;;
19231;SDS011;9750;48.730;10.294;2022-11-04T11:28:33;5.87;;;2.70;;
19231;SDS011;9750;48.730;10.294;2022-11-04T11:31:07;3.37;;;2.60;;
19231;SDS011;9750;48.730;10.294;2022-11-04T11:33:45;6.10;;;2.80;;
19231;SDS011;9750;48.730;10.294;2022-11-04T11:36:17;4.00;;;2.03;;
19231;SDS011;9750;48.730;10.294;2022-11-04T11:38:50;5.50;;;2.10;;
19231;SDS011;9750;48.730;10.294;2022-11-04T11:41:20;4.30;;;2.00;;
19231;SDS011;9750;48.730;10.294;2022-11-04T11:43:57;2.77;;;2.07;;
19231;SDS011;9750;48.730;10.294;2022-11-04T11:46:28;2.00;;;1.70;;
19231;SDS011;9750;48.730;10.294;2022-11-04T11:48:57;4.20;;;2.10;;
19231;SDS011;9750;48.730;10.294;2022-11-04T11:51:27;2.40;;;1.60;;
19231;SDS011;9750;48.730;10.294;2022-11-04T11:54:00;4.40;;;1.83;;
19231;SDS011;9750;48.730;10.294;2022-11-04T11:56:38;2.67;;;1.70;;
19231;SDS011;9750;48.730;10.294;2022-11-04T11:59:14;3.70;;;2.37;;
19231;SDS011;9750;48.730;10.294;2022-11-04T12:01:49;6.27;;;2.93;;
19231;SDS011;9750;48.730;10.294;2022-11-04T12:04:29;2.80;;;2.23;;
19231;SDS011;9750;48.730;10.294;2022-11-04T12:07:00;6.97;;;2.80;;
19231;SDS011;9750;48.730;10.294;2022-11-04T12:09:34;3.40;;;1.97;;
19231;SDS011;9750;48.730;10.294;2022-11-04T12:12:10;2.87;;;1.70;;
19231;SDS011;9750;48.730;10.294;2022-11-04T12:14:52;2.30;;;1.90;;
19231;SDS011;9750;48.730;10.294;2022-11-04T12:17:28;2.33;;;1.93;;
19231;SDS011;9750;48.730;10.294;2022-11-04T12:20:14;3.20;;;1.93;;
19231;SDS011;9750;48.730;10.294;2022-11-04T12:22:53;5.43;;;2.00;;
19231;SDS011;9750;48.730;10.294;2022-11-04T12:25:27;3.93;;;2.20;;
19231;SDS011;9750;48.730;10.294;2022-11-04T12:28:05;3.00;;;2.00;;
19231;SDS011;9750;48.730;10.294;2022-11-04T12:30:47;4.80;;;1.97;;
19231;SDS011;9750;48.730;10.294;2022-11-04T12:33:24;2.90;;;2.00;;
19231;SDS011;9750;48.730;10.294;2022-11-04T12:36:02;3.23;;;1.97;;
19231;SDS011;9750;48.730;10.294;2022-11-04T12:38:47;2.60;;;1.60;;
19231;SDS011;9750;48.730;10.294;2022-11-04T12:41:27;5.63;;;2.23;;
19231;SDS011;9750;48.730;10.294;2022-11-04T12:44:04;3.03;;;1.60;;
19231;SDS011;9750;48.730;10.294;2022-11-04T12:46:39;3.07;;;1.77;;
19231;SDS011;9750;48.730;10.294;2022-11-04T12:49:18;3.60;;;1.90;;
19231;SDS011;9750;48.730;10.294;2022-11-04T12:52:07;3.57;;;1.90;;
19231;SDS011;9750;48.730;10.294;2022-11-04T12:54:50;2.77;;;1.70;;
19231;SDS011;9750;48.730;10.294;2022-11-04T12:57:28;5.70;;;2.60;;
19231;SDS011;9750;48.730;10.294;2022-11-04T13:00:07;5.17;;;2.57;;
19231;SDS011;9750;48.730;10.294;2022-11-04T13:02:41;2.60;;;2.00;;
19231;SDS011;9750;48.730;10.294;2022-11-04T13:05:18;7.03;;;2.77;;
19231;SDS011;9750;48.730;10.294;2022-11-04T13:08:08;4.20;;;2.30;;
19231;SDS011;9750;48.730;10.294;2022-11-04T13:10:42;5.60;;;2.30;;
19231;SDS011;9750;48.730;10.294;2022-11-04T13:13:14;3.67;;;2.40;;
19231;SDS011;9750;48.730;10.294;2022-11-04T13:15:45;4.37;;;2.60;;
19231;SDS011;9750;48.730;10.294;2022-11-04T13:18:17;7.63;;;2.50;;
19231;SDS011;9750;48.730;10.294;2022-11-04T13:20:48;5.20;;;2.63;;
19231;SDS011;9750;48.730;10.294;2022-11-04T13:23:22;4.33;;;2.33;;
19231;SDS011;9750;48.730;10.294;2022-11-04T13:25:54;5.17;;;2.47;;
19231;SDS011;9750;48.730;10.294;2022-11-04T13:28:23;24.80;;;11.30;;
19231;SDS011;9750;48.730;10.294;2022-11-04T13:30:53;32.53;;;16.17;;
19231;SDS011;9750;48.730;10.294;2022-11-04T13:33:32;4.90;;;2.77;;
19231;SDS011;9750;48.730;10.294;2022-11-04T13:36:07;4.87;;;2.47;;
19231;SDS011;9750;48.730;10.294;2022-11-04T13:38:46;4.80;;;2.40;;
19231;SDS011;9750;48.730;10.294;2022-11-04T13:44:12;4.80;;;2.50;;
19231;SDS011;9750;48.730;10.294;2022-11-04T13:46:45;6.60;;;2.77;;
19231;SDS011;9750;48.730;10.294;2022-11-04T13:49:20;3.90;;;2.63;;
19231;SDS011;9750;48.730;10.294;2022-11-04T13:52:01;9.77;;;6.40;;
19231;SDS011;9750;48.730;10.294;2022-11-04T13:54:32;14.30;;;9.63;;
19231;SDS011;9750;48.730;10.294;2022-11-04T13:57:07;6.47;;;3.90;;
19231;SDS011;9750;48.730;10.294;2022-11-04T13:59:37;6.47;;;3.40;;
19231;SDS011;9750;48.730;10.294;2022-11-04T14:08:18;5.37;;;2.70;;
19231;SDS011;9750;48.730;10.294;2022-11-04T14:11:08;7.13;;;2.20;;
19231;SDS011;9750;48.730;10.294;2022-11-04T14:13:48;5.93;;;3.73;;
19231;SDS011;9750;48.730;10.294;2022-11-04T14:16:43;11.17;;;5.43;;
19231;SDS011;9750;48.730;10.294;2022-11-04T14:22:20;4.83;;;3.00;;
19231;SDS011;9750;48.730;10.294;2022-11-04T14:24:54;6.03;;;3.67;;
19231;SDS011;9750;48.730;10.294;2022-11-04T14:27:24;5.97;;;3.20;;
19231;SDS011;9750;48.730;10.294;2022-11-04T14:29:55;8.33;;;3.80;;
19231;SDS011;9750;48.730;10.294;2022-11-04T14:32:26;8.03;;;4.23;;
19231;SDS011;9750;48.730;10.294;2022-11-04T14:34:59;8.60;;;5.10;;
19231;SDS011;9750;48.730;10.294;2022-11-04T14:37:30;10.50;;;4.37;;
19231;SDS011;9750;48.730;10.294;2022-11-04T14:40:03;7.53;;;3.90;;
19231;SDS011;9750;48.730;10.294;2022-11-04T14:42:47;7.17;;;3.70;;
19231;SDS011;9750;48.730;10.294;2022-11-04T14:45:17;7.43;;;3.33;;
19231;SDS011;9750;48.730;10.294;2022-11-04T14:47:49;6.33;;;3.40;;
19231;SDS011;9750;48.730;10.294;2022-11-04T14:50:20;7.17;;;3.60;;
19231;SDS011;9750;48.730;10.294;2022-11-04T14:52:53;8.93;;;3.93;;
19231;SDS011;9750;48.730;10.294;2022-11-04T14:55:24;7.27;;;3.90;;
19231;SDS011;9750;48.730;10.294;2022-11-04T14:57:54;7.70;;;4.63;;
19231;SDS011;9750;48.730;10.294;2022-11-04T15:00:30;8.20;;;4.67;;
19231;SDS011;9750;48.730;10.294;2022-11-04T15:03:04;7.97;;;5.37;;
19231;SDS011;9750;48.730;10.294;2022-11-04T15:05:38;6.67;;;3.83;;
19231;SDS011;9750;48.730;10.294;2022-11-04T15:08:24;5.97;;;3.63;;
19231;SDS011;9750;48.730;10.294;2022-11-04T15:10:58;5.57;;;3.33;;
19231;SDS011;9750;48.730;10.294;2022-11-04T15:13:28;7.27;;;4.30;;
19231;SDS011;9750;48.730;10.294;2022-11-04T15:15:59;7.03;;;4.80;;
19231;SDS011;9750;48.730;10.294;2022-11-04T15:18:35;6.90;;;4.03;;
19231;SDS011;9750;48.730;10.294;2022-11-04T15:21:05;7.53;;;4.20;;
19231;SDS011;9750;48.730;10.294;2022-11-04T15:23:35;4.93;;;3.10;;
19231;SDS011;9750;48.730;10.294;2022-11-04T15:26:13;7.87;;;3.23;;
19231;SDS011;9750;48.730;10.294;2022-11-04T15:28:47;5.07;;;3.07;;
19231;SDS011;9750;48.730;10.294;2022-11-04T15:31:17;5.43;;;3.40;;
19231;SDS011;9750;48.730;10.294;2022-11-04T15:33:47;6.43;;;3.37;;
19231;SDS011;9750;48.730;10.294;2022-11-04T15:36:17;7.37;;;3.40;;
19231;SDS011;9750;48.730;10.294;2022-11-04T15:38:48;7.20;;;3.63;;
19231;SDS011;9750;48.730;10.294;2022-11-04T15:41:19;6.50;;;3.70;;
19231;SDS011;9750;48.730;10.294;2022-11-04T15:44:06;4.83;;;3.30;;
19231;SDS011;9750;48.730;10.294;2022-11-04T15:46:47;8.57;;;3.50;;
19231;SDS011;9750;48.730;10.294;2022-11-04T15:49:19;8.07;;;3.67;;
19231;SDS011;9750;48.730;10.294;2022-11-04T15:51:51;5.20;;;3.00;;
19231;SDS011;9750;48.730;10.294;2022-11-04T15:54:20;5.83;;;3.33;;
19231;SDS011;9750;48.730;10.294;2022-11-04T15:56:52;8.60;;;3.73;;
19231;SDS011;9750;48.730;10.294;2022-11-04T15:59:22;4.67;;;3.10;;
19231;SDS011;9750;48.730;10.294;2022-11-04T16:01:52;6.97;;;3.27;;